Yurimaguas, Peru

2:13 PM PET on July 25, 2014 (GMT -0500)
Moises Benzaquen Rengifo (SPMS) Elev 604 ft | 5.89 °S, 76.12 °W | Change Station

Current weather conditions updated 13 minutes ago

Scattered Clouds
Scattered Clouds
91 °F
Feels Like 102 °F
N
6
Wind Variable Wind from North

Today is forecast to be Warmer than yesterday. Thunderstorms.

Today
High -- | Low -- °F
--% Chance of Precip.
Yesterday
High -- | Low -- °F
Precip. -- in
6:15 AM 6:06 PM
Waning Crescent, 1% visible
Pressure 30.54 in
Visibility 6.2 miles
Clouds Scattered Clouds 2500 ft
Heat Index 102 °F
Dew Point 75 °F
Humidity 59%
Rainfall 0.00 in
Snow Depth Not available.
UV 8 out of 12
Pollen Not available.
Air Quality Not available.
Flu Activity Not available.
METAR SPMS 251900Z 35005KT 9999 SCT025 33/24 Q1034 RMK BIRD HAZARD 09/27 PP000

More Conditions Fewer Conditions

Pressure 30.54 in
Visibility 6.2 miles
Clouds Scattered Clouds 2500 ft
Heat Index 102 °F
Dew Point 75 °F
Humidity 59%
Rainfall 0.00 in
Snow Depth Not available.
UV 8 out of 12
Pollen Not available.
Air Quality Not available.
Flu Activity Not available.
METAR SPMS 251900Z 35005KT 9999 SCT025 33/24 Q1034 RMK BIRD HAZARD 09/27 PP000

More Conditions Fewer Conditions

10-Day Weather Forecast

Almanac

Astronomy

Jul. 25, 2014 Rise Set
Actual Time 6:15 AM PET 6:06 PM PET
Civil Twilight 5:53 AM PET 6:28 PM PET
Nautical Twilight 5:28 AM PET 6:53 PM PET
Astronomical Twilight 5:02 AM PET 7:18 PM PET
Moon 5:05 AM PET 5:12 PM PET
Length of Visible Light 12h 34m
Length of Day
11h 50m
Tomorrow will be 0m 10s longer.
Waning Crescent, 1% of the Moon is Illuminated
Today
Waning Crescent
Jul 26
New
Aug 3
First Quarter
Aug 10
Full
Aug 17
Last Quarter

Today's Extremes

Country Highs Country Lows

Community

WunderPhotos

Upload Photos

1,737,375 photos uploaded!

Nearby

Snow Depth

Not available.

Earthquake Activity

City Distance Mag. Time & Date
No recent earthquake activity has been reported nearby.
Minimum magnitude displayed is 2.5.

Coastal Water Temperatures

Place Temperature
No Stations Reporting

Nearby Weather Stations

There are no personal weather stations in this area.